Aydlett, North Carolina
Current Conditions -  °F | °C
As of 2:19 PM on Thursday 23 Oct 2014 (Local Time) from KONX Reporting Station
Broken Clouds Broken Clouds  
Wind Chill: 18°   Ceiling: 4100
Heat Index: 18°   Visibility: 10mi
Dew Point:   Wind: 14mph
Humidity: 49%   Direction: 320°NW
Pressure: 29.85"   Gusts: 18mph
Location:  36.33°N, 75.91°W
Report Text: KONX 231819Z AUTO 32012G16KT 10SM BKN041 18/07 A2985 RMK AO2
Loading
Personal Weather Stations






























Interactive Weather Map
Tropical Storm Tracking
New forecast layout! Learn more

10-Day Weather Forecast

Advertisements
Track Severe Weather on mobile